createdAt,value
2023-05-13T00:03:41.019Z,96638.47
2023-05-13T00:08:43.442Z,96653.44
2023-05-13T00:13:46.275Z,96659.56
2023-05-13T00:18:48.462Z,96649.59
2023-05-13T00:23:51.117Z,96642.00
2023-05-13T00:28:53.733Z,96661.44
2023-05-13T00:33:56.438Z,96646.44
2023-05-13T00:38:59.165Z,96662.94
2023-05-13T00:44:01.858Z,96661.09
2023-05-13T00:49:05.792Z,96678.22
2023-05-13T00:54:08.375Z,96667.88
2023-05-13T00:59:11.001Z,96651.72
2023-05-13T01:04:45.097Z,96675.44
2023-05-13T01:09:55.512Z,96683.34
2023-05-13T01:15:15.348Z,96686.34
2023-05-13T01:20:23.004Z,96694.75
2023-05-13T01:25:26.259Z,96695.63
2023-05-13T01:30:28.995Z,96690.63
2023-05-13T01:35:32.566Z,96684.53
2023-05-13T01:40:36.397Z,96712.13
2023-05-13T01:45:42.803Z,96721.75
2023-05-13T01:50:46.851Z,96708.31
2023-05-13T01:55:49.726Z,96722.91
2023-05-13T02:00:52.534Z,96722.66
2023-05-13T02:05:54.628Z,96716.75
2023-05-13T02:10:58.164Z,96705.19
2023-05-13T02:16:01.104Z,96730.72
2023-05-13T02:21:04.073Z,96744.31
2023-05-13T02:26:06.721Z,96717.75
2023-05-13T02:31:09.444Z,96729.31
2023-05-13T02:36:12.342Z,96716.22
2023-05-13T02:41:15.222Z,96691.16
2023-05-13T02:46:18.106Z,96681.84
2023-05-13T02:51:21.332Z,96684.41
2023-05-13T02:56:24.252Z,96714.28
2023-05-13T03:01:27.286Z,96717.72
2023-05-13T03:06:29.647Z,96717.06
2023-05-13T03:11:32.267Z,96729.91
2023-05-13T03:16:34.903Z,96732.84
2023-05-13T03:21:38.472Z,96757.97
2023-05-13T03:26:44.803Z,96770.47
2023-05-13T03:31:47.330Z,96758.53
2023-05-13T03:36:49.992Z,96773.66
2023-05-13T03:41:53.172Z,96770.47
2023-05-13T03:46:56.003Z,96786.34
2023-05-13T03:51:58.921Z,96765.31
2023-05-13T03:57:01.669Z,96771.03
2023-05-13T04:02:04.909Z,96731.47
2023-05-13T04:07:07.660Z,96758.59
2023-05-13T04:12:09.785Z,96783.84
2023-05-13T04:17:12.531Z,96774.41
2023-05-13T04:22:14.684Z,96768.50
2023-05-13T04:27:17.352Z,96746.41
2023-05-13T04:32:23.811Z,96778.25
2023-05-13T04:37:30.537Z,96798.84
2023-05-13T04:42:37.333Z,96764.09
2023-05-13T04:47:40.449Z,96764.06
2023-05-13T04:52:43.353Z,96768.50
2023-05-13T04:57:46.417Z,96762.81
2023-05-13T05:02:49.502Z,96753.03
2023-05-13T05:07:52.188Z,96742.69
2023-05-13T05:12:56.095Z,96751.66
2023-05-13T05:18:00.190Z,96762.31
2023-05-13T05:23:03.815Z,96782.28
2023-05-13T05:28:08.006Z,96737.41
2023-05-13T05:33:15.130Z,96735.06
2023-05-13T05:38:18.926Z,96753.63
2023-05-13T05:43:39.848Z,96740.97
2023-05-13T05:48:44.069Z,96762.63
2023-05-13T05:53:47.467Z,96730.72
2023-05-13T05:58:52.098Z,96750.53
2023-05-13T06:03:55.497Z,96748.44
2023-05-13T06:08:58.824Z,96729.97
2023-05-13T06:14:01.563Z,96748.41
2023-05-13T06:19:04.318Z,96739.09
2023-05-13T06:24:06.910Z,96713.28
2023-05-13T06:29:09.880Z,96711.97
2023-05-13T06:34:16.710Z,96706.31
2023-05-13T06:39:20.463Z,96710.50
2023-05-13T06:44:23.326Z,96696.50
2023-05-13T06:49:30.109Z,96711.75
2023-05-13T06:54:32.780Z,96714.69
2023-05-13T06:59:36.269Z,96716.03
2023-05-13T07:04:38.776Z,96719.84
2023-05-13T07:09:40.824Z,96735.41
2023-05-13T07:14:45.534Z,96726.50
2023-05-13T07:19:48.091Z,96719.88
2023-05-13T07:24:50.795Z,96722.81
2023-05-13T07:29:53.394Z,96704.16
2023-05-13T07:34:55.975Z,96701.88
2023-05-13T07:39:58.709Z,96726.13
2023-05-13T07:45:01.478Z,96733.63
2023-05-13T07:50:04.310Z,96710.25
2023-05-13T07:55:07.560Z,96709.91
2023-05-13T08:00:10.340Z,96712.91
2023-05-13T08:05:15.800Z,96705.09
2023-05-13T08:10:18.529Z,96701.66
2023-05-13T08:15:21.437Z,96696.38
2023-05-13T08:20:30.103Z,96701.13
2023-05-13T08:25:32.517Z,96695.47
2023-05-13T08:30:35.289Z,96714.34
2023-05-13T08:35:37.817Z,96701.28
2023-05-13T08:40:40.678Z,96710.50
2023-05-13T08:45:47.633Z,96697.94
2023-05-13T08:50:50.913Z,96723.72
2023-05-13T08:55:54.992Z,96715.41
2023-05-13T09:00:57.270Z,96699.28
2023-05-13T09:06:03.704Z,96694.31
2023-05-13T09:11:06.461Z,96681.63
2023-05-13T09:16:09.095Z,96689.75
2023-05-13T09:21:26.259Z,96685.88
2023-05-13T09:26:31.578Z,96686.84
2023-05-13T09:31:34.859Z,96709.06
2023-05-13T09:36:37.140Z,96705.25
2023-05-13T09:41:39.895Z,96672.63
2023-05-13T09:46:43.840Z,96678.19
2023-05-13T09:51:46.854Z,96679.69
2023-05-13T09:56:49.610Z,96665.75
2023-05-13T10:01:54.009Z,96671.97
2023-05-13T10:06:58.153Z,96675.03
2023-05-13T10:12:03.990Z,96663.78
2023-05-13T10:17:07.458Z,96643.34
2023-05-13T10:22:11.150Z,96670.16
2023-05-13T10:27:15.003Z,96698.03
2023-05-13T10:32:17.647Z,96690.13
2023-05-13T10:37:31.812Z,96686.41
2023-05-13T10:42:55.944Z,96701.97
2023-05-13T10:48:07.535Z,96690.47
2023-05-13T10:53:20.358Z,96697.28
2023-05-13T10:58:28.987Z,96678.97
2023-05-13T11:03:31.730Z,96694.94
2023-05-13T11:08:42.039Z,96721.25
2023-05-13T11:13:44.723Z,96706.44
2023-05-13T11:18:47.906Z,96699.22
2023-05-13T11:23:58.237Z,96694.94
2023-05-13T11:29:04.710Z,96700.75
2023-05-13T11:34:06.975Z,96691.72
2023-05-13T11:39:12.632Z,96685.97
2023-05-13T11:44:17.560Z,96685.34
2023-05-13T11:49:35.562Z,96684.34
2023-05-13T11:54:58.949Z,96675.47
2023-05-13T12:00:07.283Z,96695.47
2023-05-13T12:05:11.777Z,96690.22
2023-05-13T12:10:14.868Z,96700.97
2023-05-13T12:15:19.122Z,96697.97
2023-05-13T12:20:23.530Z,96708.75
2023-05-13T12:25:47.031Z,96696.84
2023-05-13T12:30:59.201Z,96688.78
2023-05-13T12:36:25.878Z,96683.06
2023-05-13T12:41:41.982Z,96687.53
2023-05-13T12:46:54.810Z,96672.03
2023-05-13T12:51:57.590Z,96667.56
2023-05-13T12:57:00.279Z,96668.91
2023-05-13T13:02:02.809Z,96674.56
2023-05-13T13:07:09.002Z,96662.78
2023-05-13T13:12:11.486Z,96657.50
2023-05-13T13:17:13.560Z,96657.91
2023-05-13T13:22:16.237Z,96652.28
2023-05-13T13:27:19.243Z,96668.09
2023-05-13T13:32:22.052Z,96677.84
2023-05-13T13:37:24.796Z,96664.97
2023-05-13T13:42:40.119Z,96677.66
2023-05-13T13:47:45.888Z,96660.03
2023-05-13T13:52:48.112Z,96671.78
2023-05-13T13:57:51.194Z,96655.13
2023-05-13T14:02:53.998Z,96657.28
2023-05-13T14:07:56.757Z,96668.81
2023-05-13T14:12:58.845Z,96672.59
2023-05-13T14:18:01.500Z,96675.41
2023-05-13T14:23:05.501Z,96687.34
2023-05-13T14:28:08.365Z,96690.34
2023-05-13T14:33:11.138Z,96672.94
2023-05-13T14:38:13.824Z,96680.53
2023-05-13T14:43:15.948Z,96687.53
2023-05-13T14:48:19.578Z,96672.06
2023-05-13T14:53:22.252Z,96683.19
2023-05-13T14:58:24.971Z,96693.00
2023-05-13T15:03:27.530Z,96686.72
2023-05-13T15:08:30.201Z,96673.91
2023-05-13T15:13:37.068Z,96701.09
2023-05-13T15:18:39.638Z,96698.63
2023-05-13T15:23:42.212Z,96686.19
2023-05-13T15:28:44.816Z,96700.06
2023-05-13T15:33:47.383Z,96686.88
2023-05-13T15:38:50.466Z,96686.34
2023-05-13T15:43:53.019Z,96697.25
2023-05-13T15:48:55.724Z,96690.81
2023-05-13T15:53:58.383Z,96698.31
2023-05-13T15:59:00.557Z,96691.34
2023-05-13T16:04:03.314Z,96686.44
2023-05-13T16:09:05.967Z,96701.09
2023-05-13T16:14:08.894Z,96699.34
2023-05-13T16:19:11.593Z,96690.03
2023-05-13T16:24:14.160Z,96706.38
2023-05-13T16:29:16.855Z,96696.63
2023-05-13T16:34:19.394Z,96721.63
2023-05-13T16:39:22.108Z,96718.91
2023-05-13T16:44:25.302Z,96736.34
2023-05-13T16:49:27.954Z,96729.66
2023-05-13T16:54:30.594Z,96750.09
2023-05-13T16:59:36.544Z,96742.75
2023-05-13T17:04:39.145Z,96739.06
2023-05-13T17:09:41.304Z,96719.47
2023-05-13T17:14:44.210Z,96755.00
2023-05-13T17:19:46.723Z,96753.75
2023-05-13T17:24:49.278Z,96766.28
2023-05-13T17:29:52.025Z,96771.47
2023-05-13T17:34:54.477Z,96775.59
2023-05-13T17:40:00.872Z,96794.91
2023-05-13T17:45:04.029Z,96776.88
2023-05-13T17:50:06.658Z,96789.88
2023-05-13T17:55:09.536Z,96778.84
2023-05-13T18:00:14.987Z,96783.22
2023-05-13T18:05:17.806Z,96783.91
2023-05-13T18:10:21.098Z,96787.84
2023-05-13T18:15:23.962Z,96792.72
2023-05-13T18:20:26.712Z,96808.63
2023-05-13T18:25:31.477Z,96811.75
2023-05-13T18:30:34.018Z,96805.31
2023-05-13T18:35:38.571Z,96814.31
2023-05-13T18:40:42.247Z,96813.13
2023-05-13T18:45:44.839Z,96816.19
2023-05-13T18:50:47.486Z,96816.28
2023-05-13T18:55:50.253Z,96815.84
2023-05-13T19:00:53.224Z,96799.69
2023-05-13T19:05:56.142Z,96744.19
2023-05-13T19:10:58.892Z,96804.75
2023-05-13T19:16:01.581Z,96797.72
2023-05-13T19:21:04.431Z,96805.53
2023-05-13T19:26:07.012Z,96789.94
2023-05-13T19:31:10.978Z,96777.06
2023-05-13T19:36:13.772Z,96789.88
2023-05-13T19:41:16.500Z,96774.91
2023-05-13T19:46:19.245Z,96776.06
2023-05-13T19:51:22.018Z,96782.94
2023-05-13T19:56:24.864Z,96782.53
2023-05-13T20:01:27.534Z,96794.34
2023-05-13T20:06:30.243Z,96761.81
2023-05-13T20:11:32.383Z,96795.47
2023-05-13T20:16:34.984Z,96794.84
2023-05-13T20:21:37.578Z,96811.41
2023-05-13T20:26:40.339Z,96790.31
2023-05-13T20:31:43.669Z,96802.75
2023-05-13T20:36:45.950Z,96803.97
2023-05-13T20:41:48.654Z,96815.56
2023-05-13T20:46:51.680Z,96810.72
2023-05-13T20:51:54.435Z,96794.09
2023-05-13T20:56:57.164Z,96795.53
2023-05-13T21:01:59.392Z,96789.88
2023-05-13T21:07:02.114Z,96769.78
2023-05-13T21:12:05.183Z,96784.78
2023-05-13T21:17:07.953Z,96785.47
2023-05-13T21:22:10.317Z,96771.63
2023-05-13T21:27:13.338Z,96764.28
2023-05-13T21:32:18.719Z,96747.41
2023-05-13T21:37:21.284Z,96773.19
2023-05-13T21:42:23.391Z,96766.72
2023-05-13T21:47:25.884Z,96759.94
2023-05-13T21:52:28.424Z,96752.16
2023-05-13T21:57:31.012Z,96780.81
2023-05-13T22:02:33.285Z,96755.28
2023-05-13T22:07:36.419Z,96777.56
2023-05-13T22:12:38.932Z,96786.44
2023-05-13T22:17:41.827Z,96795.78
2023-05-13T22:22:44.117Z,96773.84
2023-05-13T22:27:49.023Z,96795.94
2023-05-13T22:32:52.399Z,96783.19
2023-05-13T22:37:55.210Z,96791.34
2023-05-13T22:42:57.764Z,96794.56
2023-05-13T22:47:59.907Z,96798.19
2023-05-13T22:53:03.112Z,96796.50
2023-05-13T22:58:05.931Z,96801.09
2023-05-13T23:03:08.862Z,96779.88
2023-05-13T23:08:11.474Z,96794.28
2023-05-13T23:13:13.970Z,96778.31
2023-05-13T23:18:16.682Z,96765.94
2023-05-13T23:23:19.130Z,96802.63
2023-05-13T23:28:40.927Z,96800.84
2023-05-13T23:33:43.138Z,96750.84
2023-05-13T23:38:46.319Z,96768.50
2023-05-13T23:43:48.911Z,96751.03
2023-05-13T23:48:51.054Z,96771.41
2023-05-13T23:53:55.633Z,96783.72
2023-05-13T23:58:58.395Z,96760.88
